Time;durP1;ratioP1;P1;durP2;ratioP2;P2;SDS_P1;SDS_P2;PMS_P1;PMS_P2;Temp;Humidity;BMP_temperature;BMP_pressure;BME280_temperature;BME280_humidity;BME280_pressure;Samples;Min_cycle;Max_cycle;Signal;HPM_P1;HPM_P2
2021/03/25 00:01:44;;;;;;;33.47;17.75;;;;;;;-0.93;52.02;95047.63;4984123;28;19917;-79
2021/03/25 00:04:09;;;;;;;47.10;20.10;;;;;;;-0.90;51.84;95047.31;4970538;28;20034;-79
2021/03/25 00:06:41;;;;;;;49.00;22.60;;;;;;;-0.99;52.49;95051.56;4988422;28;20038;-79
2021/03/25 00:09:08;;;;;;;56.17;23.38;;;;;;;-0.88;52.16;95055.59;4957430;28;20098;-79
2021/03/25 00:11:34;;;;;;;60.17;24.05;;;;;;;-0.80;51.78;95060.75;4959967;28;20049;-79
2021/03/25 00:14:00;;;;;;;51.83;24.70;;;;;;;-0.84;52.69;95054.34;4956166;28;20430;-79
2021/03/25 00:16:25;;;;;;;68.78;24.50;;;;;;;-0.90;52.94;95054.97;5001445;28;20046;-79
2021/03/25 00:18:51;;;;;;;56.42;23.67;;;;;;;-0.88;53.15;95052.25;4985102;28;20033;-79
2021/03/25 00:21:16;;;;;;;47.20;22.17;;;;;;;-1.06;53.66;95049.81;5004124;28;20490;-79
2021/03/25 00:23:42;;;;;;;56.08;25.05;;;;;;;-1.00;53.76;95052.53;5003984;28;20026;-79
2021/03/25 00:26:07;;;;;;;51.47;23.15;;;;;;;-0.93;53.30;95045.06;5009761;28;20030;-79
2021/03/25 00:28:33;;;;;;;62.75;25.83;;;;;;;-0.94;53.56;95049.38;5011481;28;20061;-79
2021/03/25 00:30:58;;;;;;;55.03;24.33;;;;;;;-1.03;53.63;95057.16;4962833;28;20044;-78
2021/03/25 00:33:24;;;;;;;49.13;23.00;;;;;;;-0.96;53.83;95050.50;5015105;28;20046;-79
2021/03/25 00:35:50;;;;;;;44.75;21.17;;;;;;;-0.98;53.70;95054.94;5017588;28;20046;-79
2021/03/25 00:38:15;;;;;;;52.05;20.95;;;;;;;-0.98;53.98;95045.53;4997736;28;20090;-79
2021/03/25 00:40:44;;;;;;;45.92;22.73;;;;;;;-1.10;54.39;95049.31;4985541;28;20030;-79
2021/03/25 00:43:10;;;;;;;51.50;21.40;;;;;;;-1.04;54.04;95051.25;4997183;28;20034;-79
2021/03/25 00:45:40;;;;;;;50.35;21.90;;;;;;;-1.13;54.36;95049.63;4969776;28;20035;-80
2021/03/25 00:48:07;;;;;;;69.82;25.45;;;;;;;-1.13;55.26;95044.53;4987139;28;20044;-79
2021/03/25 00:50:46;;;;;;;63.28;25.23;;;;;;;-1.19;54.59;95052.00;4963941;28;20145;-78
2021/03/25 00:53:19;;;;;;;56.55;23.40;;;;;;;-1.22;54.45;95042.91;4994226;28;20058;-79
2021/03/25 00:55:45;;;;;;;82.07;36.58;;;;;;;-1.17;54.32;95042.44;4997016;28;20035;-79
2021/03/25 00:58:10;;;;;;;98.78;46.10;;;;;;;-1.36;54.65;95046.81;4985603;28;20034;-79
2021/03/25 01:00:38;;;;;;;106.43;49.75;;;;;;;-1.21;54.46;95050.41;4945355;28;20495;-79
2021/03/25 01:03:04;;;;;;;120.55;55.28;;;;;;;-1.21;54.85;95041.94;4949002;28;20034;-79
2021/03/25 01:05:29;;;;;;;115.43;53.80;;;;;;;-1.22;55.18;95040.34;4969226;28;20035;-78
2021/03/25 01:08:29;;;;;;;91.75;41.28;;;;;;;-1.33;55.68;95038.06;4953590;28;20030;-80
2021/03/25 01:11:11;;;;;;;88.95;41.35;;;;;;;-1.25;55.37;95027.91;5002127;28;20042;-80
2021/03/25 01:13:41;;;;;;;108.38;45.65;;;;;;;-1.26;54.98;95036.50;4984633;28;20045;-80
2021/03/25 01:16:08;;;;;;;120.35;50.92;;;;;;;-1.32;55.45;95030.25;4984381;28;20422;-79
2021/03/25 01:18:33;;;;;;;118.57;51.75;;;;;;;-1.30;55.74;95030.91;4971083;28;20035;-80
2021/03/25 01:20:59;;;;;;;106.65;44.38;;;;;;;-1.18;55.10;95025.53;4961617;28;20106;-79
2021/03/25 01:23:24;;;;;;;107.60;46.75;;;;;;;-1.27;55.50;95022.97;4952934;28;20041;-79
2021/03/25 01:25:50;;;;;;;123.57;50.92;;;;;;;-1.27;55.33;95032.38;4951746;28;20088;-79
2021/03/25 01:28:16;;;;;;;100.53;42.75;;;;;;;-1.31;55.31;95024.19;4967665;28;20030;-79
2021/03/25 01:30:41;;;;;;;122.65;46.22;;;;;;;-1.32;55.72;95035.34;4967736;28;20033;-79
2021/03/25 01:33:08;;;;;;;136.35;53.28;;;;;;;-1.35;54.88;95035.66;4984499;28;20057;-80
2021/03/25 01:35:40;;;;;;;107.85;45.25;;;;;;;-1.30;56.26;95027.56;4984730;28;20060;-79
2021/03/25 01:38:06;;;;;;;121.07;49.35;;;;;;;-1.22;55.93;95025.03;5002397;28;20026;-79
2021/03/25 01:40:38;;;;;;;109.93;50.05;;;;;;;-1.23;56.14;95024.25;5001750;28;20122;-79
2021/03/25 01:43:20;;;;;;;118.88;51.85;;;;;;;-1.26;56.06;95024.56;4968604;28;20038;-80
2021/03/25 01:45:46;;;;;;;113.75;50.28;;;;;;;-1.23;56.42;95019.13;4961122;28;20046;-79
2021/03/25 01:48:12;;;;;;;123.72;50.83;;;;;;;-1.22;55.88;95013.06;4985721;28;20038;-80
2021/03/25 01:50:38;;;;;;;120.53;47.08;;;;;;;-1.13;55.99;95020.78;4953966;28;20095;-80
2021/03/25 01:53:34;;;;;;;122.70;48.05;;;;;;;-1.12;56.06;95024.91;4986418;28;20031;-80
2021/03/25 01:56:21;;;;;;;116.85;44.72;;;;;;;-1.22;55.34;95025.84;4988162;28;20038;-80
2021/03/25 01:59:12;;;;;;;117.35;43.45;;;;;;;-1.15;55.06;95035.41;5010661;28;20109;-79
2021/03/25 02:02:03;;;;;;;100.57;37.38;;;;;;;-1.23;55.04;95034.44;5001460;28;20038;-80
2021/03/25 02:04:28;;;;;;;50.17;21.98;;;;;;;-1.29;54.45;95040.16;4969342;28;20026;-80
2021/03/25 02:07:20;;;;;;;49.33;20.58;;;;;;;-1.18;54.08;95046.72;5002398;28;20037;-80
2021/03/25 02:09:58;;;;;;;51.70;22.10;;;;;;;-1.15;54.62;95059.19;4975774;28;20034;-80
2021/03/25 02:12:35;;;;;;;51.50;20.98;;;;;;;-1.10;54.85;95058.72;5003389;28;20034;-80
2021/03/25 02:15:09;;;;;;;62.22;25.42;;;;;;;-1.07;54.64;95053.31;4962981;28;20122;-79
2021/03/25 02:17:44;;;;;;;55.10;25.77;;;;;;;-1.00;55.26;95051.72;4990039;28;19918;-80
2021/03/25 02:20:31;;;;;;;47.42;22.92;;;;;;;-1.04;55.07;95058.09;4964906;28;20038;-78
2021/03/25 02:23:14;;;;;;;45.13;22.13;;;;;;;-1.04;55.33;95065.75;4984596;28;20414;-80
2021/03/25 02:25:51;;;;;;;;;;;;;;;-1.16;56.27;95065.22;4989105;28;20030;-80
2021/03/25 02:28:54;;;;;;;53.08;22.20;;;;;;;-1.16;56.94;95065.22;4997099;28;19971;-80
2021/03/25 02:31:22;;;;;;;53.50;23.88;;;;;;;-1.27;56.27;95066.31;5005385;28;20038;-80
2021/03/25 02:33:51;;;;;;;59.80;24.13;;;;;;;-1.28;57.12;95066.47;4973452;28;20027;-79
2021/03/25 02:36:18;;;;;;;64.50;26.85;;;;;;;-1.26;57.05;95060.25;4953904;28;20030;-79
2021/03/25 02:38:50;;;;;;;64.20;27.33;;;;;;;-1.31;56.81;95065.00;4970431;28;20085;-79
2021/03/25 02:41:32;;;;;;;57.70;26.15;;;;;;;-1.23;56.71;95069.38;4952084;28;20092;-79
2021/03/25 02:44:29;;;;;;;95.93;33.22;;;;;;;-1.19;57.43;95072.41;4963667;28;20041;-79
2021/03/25 02:47:02;;;;;;;72.28;31.17;;;;;;;-1.19;57.63;95070.66;4966095;28;20041;-80
2021/03/25 02:49:29;;;;;;;75.40;32.40;;;;;;;-1.12;57.13;95075.97;4973440;28;20034;-80
2021/03/25 02:52:25;;;;;;;76.10;35.30;;;;;;;-0.99;57.30;95081.41;4956444;28;20098;-80
2021/03/25 02:54:51;;;;;;;86.70;34.35;;;;;;;-1.00;56.89;95082.34;4977128;28;20197;-80
2021/03/25 02:57:23;;;;;;;70.95;30.10;;;;;;;-0.92;56.68;95082.41;4971988;28;20031;-80
2021/03/25 02:59:49;;;;;;;;;;;;;;;-0.82;56.17;95090.72;5006892;28;20098;-80
2021/03/25 03:02:28;;;;;;;86.03;39.00;;;;;;;-0.89;56.41;95097.41;4985859;28;19921;-80
2021/03/25 03:04:58;;;;;;;65.28;30.67;;;;;;;-0.81;55.71;95084.69;4988030;28;20034;-80
2021/03/25 03:07:26;;;;;;;58.55;24.77;;;;;;;-0.74;55.52;95090.75;4959397;28;20031;-80
2021/03/25 03:09:53;;;;;;;46.97;23.27;;;;;;;-0.78;55.81;95101.44;4967651;28;20035;-80
2021/03/25 03:12:27;;;;;;;53.53;22.88;;;;;;;-0.74;55.81;95098.41;4954792;28;20644;-80
2021/03/25 03:15:05;;;;;;;53.83;23.00;;;;;;;-0.80;55.66;95101.59;4947241;28;20035;-80
2021/03/25 03:17:34;;;;;;;45.47;20.02;;;;;;;-0.77;54.81;95096.19;4988155;28;20038;-80
2021/03/25 03:20:21;;;;;;;47.45;20.20;;;;;;;-0.76;54.83;95099.53;4957713;28;20668;-80
2021/03/25 03:22:47;;;;;;;48.63;21.60;;;;;;;-0.63;54.17;95102.44;4974115;28;20084;-80
2021/03/25 03:25:17;;;;;;;43.22;21.00;;;;;;;-0.53;53.60;95108.19;4987354;28;20525;-80
2021/03/25 03:27:59;;;;;;;46.38;21.25;;;;;;;-0.50;53.59;95113.00;4970982;28;20101;-80
2021/03/25 03:30:28;;;;;;;58.05;24.63;;;;;;;-0.44;53.61;95116.69;4990087;28;20026;-80
2021/03/25 03:32:58;;;;;;;45.05;20.25;;;;;;;-0.47;53.83;95120.38;4959625;28;20058;-80
2021/03/25 03:35:27;;;;;;;65.07;25.85;;;;;;;-0.38;52.92;95123.72;4990816;28;20065;-79
2021/03/25 03:37:58;;;;;;;58.30;24.92;;;;;;;-0.37;52.95;95120.22;4955824;28;20045;-79
2021/03/25 03:40:26;;;;;;;48.03;18.63;;;;;;;-0.42;52.93;95119.88;4953189;28;20058;-80
2021/03/25 03:42:54;;;;;;;39.13;16.90;;;;;;;-0.45;53.41;95117.66;4968618;28;20061;-79
2021/03/25 03:45:20;;;;;;;33.20;14.23;;;;;;;-0.42;52.27;95117.34;4950764;28;20769;-79
2021/03/25 03:47:45;;;;;;;28.63;13.30;;;;;;;-0.46;52.80;95118.59;4983728;28;20022;-79
2021/03/25 03:50:24;;;;;;;26.08;10.55;;;;;;;-0.47;52.39;95122.13;5002249;28;20049;-79
2021/03/25 03:52:50;;;;;;;20.88;9.85;;;;;;;-0.49;52.60;95119.72;4944612;28;20046;-79
2021/03/25 03:55:16;;;;;;;19.48;9.73;;;;;;;-0.48;52.31;95125.63;4960722;28;20039;-79
2021/03/25 03:57:47;;;;;;;21.45;8.40;;;;;;;-0.47;51.57;95125.47;4961101;28;20066;-78
2021/03/25 04:00:26;;;;;;;20.05;8.07;;;;;;;-0.57;52.13;95126.56;4981363;28;20045;-79
2021/03/25 04:03:09;;;;;;;21.25;9.23;;;;;;;-0.62;52.29;95125.28;4984064;28;20057;-79
2021/03/25 04:05:36;;;;;;;;;;;;;;;-0.69;52.09;95129.38;4968873;28;20094;-78
2021/03/25 04:08:04;;;;;;;18.98;7.60;;;;;;;-0.78;52.33;95127.78;4986689;28;19925;-79
2021/03/25 04:10:34;;;;;;;11.38;7.30;;;;;;;-0.75;52.12;95140.22;4984587;28;20038;-78
2021/03/25 04:13:00;;;;;;;10.80;7.38;;;;;;;-0.71;52.42;95146.63;4966546;28;20042;-78
2021/03/25 04:15:30;;;;;;;10.20;7.88;;;;;;;-0.67;52.12;95137.69;4968270;28;20034;-79
2021/03/25 04:18:06;;;;;;;12.05;7.30;;;;;;;-0.63;52.94;95138.19;4975762;28;20014;-80
2021/03/25 04:20:31;;;;;;;10.70;6.78;;;;;;;-0.63;52.09;95133.88;4980395;28;20050;-79
2021/03/25 04:23:01;;;;;;;14.18;7.72;;;;;;;-0.57;51.79;95141.88;4966982;28;20030;-80
2021/03/25 04:25:38;;;;;;;22.48;8.05;;;;;;;-0.63;51.79;95146.66;4982425;28;20050;-79
2021/03/25 04:28:16;;;;;;;22.90;14.27;;;;;;;-0.65;51.11;95153.69;4968740;28;20045;-81
2021/03/25 04:30:46;;;;;;;25.85;14.75;;;;;;;-0.69;50.96;95149.81;4960286;28;20030;-81
2021/03/25 04:33:13;;;;;;;28.58;14.65;;;;;;;-0.86;52.01;95153.25;4966952;28;20026;-79
2021/03/25 04:35:41;;;;;;;30.38;13.50;;;;;;;-0.70;51.92;95155.88;4977487;28;20108;-80
2021/03/25 04:38:06;;;;;;;27.02;14.55;;;;;;;-0.60;52.52;95158.31;4986668;28;20065;-79
2021/03/25 04:40:34;;;;;;;40.97;21.65;;;;;;;-0.50;52.85;95163.28;4969496;28;20494;-78
2021/03/25 04:43:00;;;;;;;53.15;26.90;;;;;;;-0.43;51.94;95169.38;5003299;28;20113;-79
2021/03/25 04:45:49;;;;;;;45.22;23.90;;;;;;;-0.42;52.12;95171.78;4970022;28;20045;-78
2021/03/25 04:48:17;;;;;;;39.90;21.67;;;;;;;-0.30;52.65;95174.84;4961629;28;20038;-80
2021/03/25 04:50:48;;;;;;;42.63;24.88;;;;;;;-0.18;51.35;95178.69;4951406;28;20064;-79
2021/03/25 04:53:20;;;;;;;50.53;26.00;;;;;;;-0.11;50.63;95184.00;4954416;28;20035;-79
2021/03/25 04:55:45;;;;;;;46.50;21.02;;;;;;;-0.12;50.36;95179.84;4970435;28;20038;-78
2021/03/25 04:58:13;;;;;;;61.65;24.55;;;;;;;0.02;50.69;95192.00;4989829;28;20046;-77
2021/03/25 05:00:40;;;;;;;45.83;23.85;;;;;;;0.08;50.52;95195.69;4981090;28;20053;-77
2021/03/25 05:03:06;;;;;;;33.15;19.27;;;;;;;0.21;49.38;95201.94;5006078;28;20030;-78
2021/03/25 05:05:32;;;;;;;40.47;19.55;;;;;;;0.26;49.69;95201.47;4956924;28;20095;-78
2021/03/25 05:08:08;;;;;;;38.20;18.52;;;;;;;0.35;49.85;95200.53;4973530;28;20038;-80
2021/03/25 05:10:38;;;;;;;32.30;19.27;;;;;;;0.48;49.61;95211.06;4968999;28;20038;-80
2021/03/25 05:13:05;;;;;;;32.25;17.52;;;;;;;0.56;49.09;95207.72;4989648;28;20026;-78
2021/03/25 05:15:32;;;;;;;38.70;19.77;;;;;;;0.72;49.99;95205.13;4978881;28;20049;-80
2021/03/25 05:18:06;;;;;;;38.60;18.55;;;;;;;1.92;46.65;95218.72;4994919;28;20054;-80
2021/03/25 05:20:46;;;;;;;38.85;19.10;;;;;;;3.31;43.43;95209.75;4964442;28;20084;-79
2021/03/25 05:23:28;;;;;;;49.63;25.13;;;;;;;4.45;40.36;95203.16;4983503;23;20079;-80
2021/03/25 05:26:05;;;;;;;52.53;23.75;;;;;;;5.05;38.67;95203.66;4989598;28;20058;-80
2021/03/25 05:28:39;;;;;;;51.65;23.15;;;;;;;5.09;39.22;95204.88;4965971;28;20412;-81
2021/03/25 05:31:06;;;;;;;49.03;23.77;;;;;;;5.41;39.07;95206.06;5000099;28;20026;-79
2021/03/25 05:33:32;;;;;;;55.00;25.80;;;;;;;5.68;37.82;95196.66;4991629;28;20036;-80
2021/03/25 05:36:03;;;;;;;43.70;22.45;;;;;;;5.87;37.64;95208.88;4995085;28;20043;-80
2021/03/25 05:38:29;;;;;;;44.72;21.25;;;;;;;6.12;37.16;95195.47;4976941;28;20042;-79
2021/03/25 05:41:38;;;;;;;54.17;22.65;;;;;;;6.68;36.43;95196.00;4998976;28;20121;-79
2021/03/25 05:44:23;;;;;;;53.28;24.40;;;;;;;7.26;35.37;95203.13;4980651;28;20098;-80
2021/03/25 05:47:29;;;;;;;56.03;22.05;;;;;;;7.69;33.92;95201.63;4998600;28;20070;-80
2021/03/25 05:50:02;;;;;;;36.40;19.48;;;;;;;8.09;33.94;95204.06;4969463;28;20055;-80
2021/03/25 05:52:52;;;;;;;40.40;19.70;;;;;;;8.32;33.19;95212.13;4972359;28;20030;-80
2021/03/25 05:55:29;;;;;;;32.28;18.75;;;;;;;8.55;33.24;95213.41;4999457;28;20059;-80
2021/03/25 05:58:10;;;;;;;34.38;18.05;;;;;;;8.70;32.62;95216.50;5000014;28;20039;-80
2021/03/25 06:01:17;;;;;;;40.88;19.08;;;;;;;8.93;32.06;95218.53;4992745;28;20062;-80
2021/03/25 06:03:53;;;;;;;39.33;18.45;;;;;;;9.07;32.12;95217.44;5035115;23;20050;-80
2021/03/25 06:06:22;;;;;;;28.02;15.90;;;;;;;9.20;31.16;95221.72;5002189;28;20029;-79
2021/03/25 06:09:08;;;;;;;26.63;15.73;;;;;;;9.25;30.79;95219.28;4986378;28;20066;-79
2021/03/25 06:11:34;;;;;;;25.70;14.63;;;;;;;9.39;30.88;95230.34;4963120;28;20041;-79
2021/03/25 06:14:07;;;;;;;28.50;15.50;;;;;;;9.65;31.87;95224.09;4994050;28;20031;-80
2021/03/25 06:16:56;;;;;;;26.70;13.45;;;;;;;9.97;30.57;95227.38;5101266;23;20073;-80
2021/03/25 06:19:40;;;;;;;22.83;12.40;;;;;;;10.01;30.78;95224.09;4978508;28;20049;-79
2021/03/25 06:22:26;;;;;;;16.27;8.40;;;;;;;9.89;30.61;95225.84;4997684;28;20026;-82
2021/03/25 06:25:09;;;;;;;14.18;9.45;;;;;;;10.04;29.81;95223.66;4981417;28;20069;-79
2021/03/25 06:28:03;;;;;;;19.88;12.95;;;;;;;9.82;30.75;95230.31;4996576;28;20026;-82
2021/03/25 06:30:40;;;;;;;25.92;12.27;;;;;;;9.86;30.47;95221.06;4976272;28;20030;-84
2021/03/25 06:33:31;;;;;;;31.15;14.38;;;;;;;9.66;30.80;95225.69;4975970;28;20053;-85
2021/03/25 06:36:21;;;;;;;;;;;;;;;;;;;;;
2021/03/25 06:39:21;;;;;;;38.58;14.88;;;;;;;9.39;30.73;95204.38;4974488;28;20134;-83
2021/03/25 06:41:59;;;;;;;32.25;14.98;;;;;;;9.62;30.79;95228.72;5064027;23;20043;-82
2021/03/25 06:44:34;;;;;;;25.70;15.57;;;;;;;9.68;31.23;95226.28;4980685;28;20037;-81
2021/03/25 06:47:33;;;;;;;26.08;13.95;;;;;;;9.75;31.15;95229.56;4953167;28;20026;-83
2021/03/25 06:50:00;;;;;;;31.92;15.20;;;;;;;9.73;30.88;95221.22;4992396;28;20037;-80
2021/03/25 06:52:25;;;;;;;13.93;9.07;;;;;;;9.40;31.08;95227.53;4958186;28;20043;-81
2021/03/25 06:55:02;;;;;;;23.45;9.77;;;;;;;9.28;31.31;95229.25;4991666;28;20030;-85
2021/03/25 06:57:38;;;;;;;13.10;7.32;;;;;;;9.06;31.70;95230.63;5006248;28;20034;-81
2021/03/25 07:00:04;;;;;;;13.55;7.95;;;;;;;8.86;32.20;95235.97;4991536;28;20054;-82
2021/03/25 07:02:33;;;;;;;11.95;7.45;;;;;;;8.81;32.35;95233.22;4981934;28;20039;-83
2021/03/25 07:04:59;;;;;;;10.30;7.25;;;;;;;8.81;31.88;95234.00;4990047;28;20082;-83
2021/03/25 07:07:33;;;;;;;11.65;7.70;;;;;;;8.71;31.88;95237.03;4976641;28;20066;-81
2021/03/25 07:09:59;;;;;;;11.40;6.38;;;;;;;8.64;31.72;95238.09;4998741;28;20030;-82
2021/03/25 07:12:31;;;;;;;10.98;7.38;;;;;;;8.78;32.87;95244.78;4987940;28;20033;-81
2021/03/25 07:14:57;;;;;;;13.43;8.02;;;;;;;9.05;31.67;95239.41;4982549;28;20065;-81
2021/03/25 07:17:47;;;;;;;18.80;6.85;;;;;;;9.19;31.16;95236.50;4974883;28;20070;-83
2021/03/25 07:20:21;;;;;;;8.50;6.38;;;;;;;9.29;30.53;95236.03;4966498;28;20051;-82
2021/03/25 07:23:06;;;;;;;9.57;6.80;;;;;;;9.33;30.24;95237.19;4985952;28;20042;-80
2021/03/25 07:25:34;;;;;;;13.15;7.20;;;;;;;9.30;31.32;95248.00;4995919;28;20030;-83
2021/03/25 07:28:00;;;;;;;18.75;8.88;;;;;;;9.51;31.41;95245.00;4977100;28;20538;-82
2021/03/25 07:30:26;;;;;;;15.77;10.02;;;;;;;9.71;30.42;95241.41;4965612;28;20034;-79
2021/03/25 07:33:18;;;;;;;15.38;8.25;;;;;;;9.71;30.86;95238.81;4975748;28;20030;-80
2021/03/25 07:35:46;;;;;;;12.60;8.27;;;;;;;9.73;31.49;95242.00;4994767;28;20066;-79
2021/03/25 07:38:34;;;;;;;9.48;7.85;;;;;;;10.02;30.92;95240.47;4968122;28;20031;-81
2021/03/25 07:41:27;;;;;;;14.70;8.35;;;;;;;10.04;29.67;95244.44;4979913;28;20027;-83
2021/03/25 07:43:53;;;;;;;14.85;8.13;;;;;;;10.07;29.43;95241.41;4977681;28;20043;-79
2021/03/25 07:46:29;;;;;;;12.93;8.55;;;;;;;10.08;30.41;95232.59;4969279;28;20427;-79
2021/03/25 07:49:05;;;;;;;15.63;8.68;;;;;;;10.19;29.72;95236.28;4963916;28;20027;-80
2021/03/25 07:51:52;;;;;;;13.95;9.57;;;;;;;9.99;29.53;95231.31;4992019;28;20054;-80
2021/03/25 07:54:23;;;;;;;25.05;13.00;;;;;;;10.00;29.62;95238.09;4990487;28;20094;-80
2021/03/25 07:57:13;;;;;;;18.47;11.60;;;;;;;10.01;29.20;95238.91;4994293;28;20184;-80
2021/03/25 07:59:44;;;;;;;41.85;17.65;;;;;;;10.11;29.34;95234.78;4984153;28;20043;-78
2021/03/25 08:02:27;;;;;;;35.15;14.50;;;;;;;10.17;29.21;95236.50;5001348;28;20035;-82
2021/03/25 08:05:34;;;;;;;27.98;15.07;;;;;;;10.17;29.20;95233.91;4993240;28;20101;-83
2021/03/25 08:08:31;;;;;;;33.20;15.98;;;;;;;10.15;29.15;95240.34;5001411;28;20034;-81
2021/03/25 08:11:20;;;;;;;16.08;9.32;;;;;;;10.13;28.75;95222.38;4994775;28;20046;-82
2021/03/25 08:14:10;;;;;;;19.73;10.77;;;;;;;10.24;29.39;95213.06;4992471;28;20053;-80
2021/03/25 08:16:40;;;;;;;17.33;10.35;;;;;;;10.42;28.06;95220.84;4997343;28;20070;-81
2021/03/25 08:19:41;;;;;;;19.48;8.00;;;;;;;10.46;26.82;95221.19;4964589;28;20490;-79
2021/03/25 08:22:35;;;;;;;7.68;4.10;;;;;;;10.39;26.60;95216.06;4994320;28;20065;-79
2021/03/25 08:25:28;;;;;;;7.05;4.93;;;;;;;10.56;26.41;95208.44;4992313;28;20026;-82
2021/03/25 08:27:57;;;;;;;3.15;2.90;;;;;;;10.58;25.35;95206.44;4994764;28;20035;-80
2021/03/25 08:30:53;;;;;;;5.00;3.75;;;;;;;10.41;26.66;95205.44;4996701;28;20041;-82
2021/03/25 08:33:53;;;;;;;5.45;3.85;;;;;;;10.32;26.40;95214.56;4998036;28;20038;-81
2021/03/25 08:36:23;;;;;;;8.18;5.22;;;;;;;10.21;26.47;95214.28;4989547;28;20081;-83
2021/03/25 08:39:10;;;;;;;23.88;7.97;;;;;;;10.24;26.59;95202.66;4980040;28;20043;-82
2021/03/25 08:41:53;;;;;;;10.82;7.35;;;;;;;10.10;27.56;95204.63;5000333;28;20106;-79
2021/03/25 08:44:45;;;;;;;19.20;10.52;;;;;;;10.28;27.35;95209.03;4964948;28;20419;-80
2021/03/25 08:47:33;;;;;;;14.65;9.93;;;;;;;10.17;27.84;95207.13;4991333;28;20066;-80
2021/03/25 08:50:36;;;;;;;22.05;9.82;;;;;;;10.35;27.29;95195.94;4995853;28;20038;-81
2021/03/25 08:53:07;;;;;;;;;;;;;;;10.45;27.08;95199.59;4989253;28;20019;-82
2021/03/25 08:55:37;;;;;;;15.85;9.32;;;;;;;10.62;27.13;95193.75;4993739;28;19924;-81
2021/03/25 08:58:16;;;;;;;12.68;7.07;;;;;;;10.85;26.26;95193.00;5001700;28;20066;-82
2021/03/25 09:06:05;;;;;;;21.92;6.40;;;;;;;10.99;25.70;95194.41;4961777;28;20045;-82
2021/03/25 09:08:31;;;;;;;15.68;6.18;;;;;;;11.03;25.81;95198.13;4955945;28;20410;-84
2021/03/25 09:11:02;;;;;;;26.60;10.93;;;;;;;11.11;25.61;95200.41;4952778;28;20041;-81
2021/03/25 09:13:32;;;;;;;14.95;7.20;;;;;;;11.17;25.34;95204.72;4955304;28;20118;-82
2021/03/25 09:16:05;;;;;;;14.25;6.70;;;;;;;11.25;25.16;95207.00;4924936;28;20027;-80
2021/03/25 09:18:31;;;;;;;11.18;6.97;;;;;;;11.33;25.53;95211.84;4939665;28;20049;-81
2021/03/25 09:20:58;;;;;;;21.83;9.80;;;;;;;11.37;25.27;95206.97;4958084;28;20031;-82
2021/03/25 09:23:30;;;;;;;19.85;13.15;;;;;;;11.18;25.12;95208.91;4933311;28;20058;-81
2021/03/25 09:26:00;;;;;;;9.15;6.40;;;;;;;10.51;26.49;95208.31;4981001;28;20237;-81
2021/03/25 09:29:06;;;;;;;20.67;8.85;;;;;;;10.11;26.81;95219.19;4958473;28;20045;-80
2021/03/25 09:32:09;;;;;;;25.25;11.18;;;;;;;10.30;26.90;95221.78;4953931;28;20039;-81
2021/03/25 09:34:40;;;;;;;21.27;10.35;;;;;;;10.56;26.34;95211.03;4956802;28;20523;-81
2021/03/25 09:37:22;;;;;;;31.40;14.88;;;;;;;10.96;26.31;95220.88;4952702;28;20049;-83
2021/03/25 09:40:08;;;;;;;6.47;4.95;;;;;;;11.02;24.03;95215.56;4952762;28;20039;-82
2021/03/25 09:42:40;;;;;;;7.03;4.65;;;;;;;11.02;25.56;95214.75;4933525;28;20054;-81
2021/03/25 09:45:33;;;;;;;6.50;4.57;;;;;;;11.03;25.02;95211.13;4935348;28;20042;-82
2021/03/25 09:48:00;;;;;;;;;;;;;;;11.08;24.55;95219.09;4942805;28;20031;-80
2021/03/25 09:50:26;;;;;;;10.00;4.95;;;;;;;11.17;25.17;95215.13;4968144;28;19918;-79
2021/03/25 09:53:06;;;;;;;7.63;5.28;;;;;;;11.16;25.73;95218.75;4970793;28;20612;-80
2021/03/25 09:55:35;;;;;;;4.70;3.90;;;;;;;11.03;25.19;95222.34;4954814;28;20043;-80
2021/03/25 09:58:01;;;;;;;5.60;4.43;;;;;;;11.05;25.95;95215.09;4922879;28;20027;-81
2021/03/25 10:00:27;;;;;;;4.40;4.00;;;;;;;11.10;24.98;95217.84;4952453;28;20042;-81
2021/03/25 10:02:54;;;;;;;13.63;7.63;;;;;;;11.12;26.20;95217.63;4971094;28;20046;-83
2021/03/25 10:05:25;;;;;;;13.52;5.40;;;;;;;11.08;25.40;95225.09;4944784;28;20031;-81
2021/03/25 10:07:58;;;;;;;5.97;4.87;;;;;;;11.05;25.30;95222.91;4953831;28;20204;-82
2021/03/25 10:10:43;;;;;;;6.57;3.53;;;;;;;10.58;24.81;95222.03;4937362;28;20086;-80
2021/03/25 10:13:12;;;;;;;4.85;3.60;;;;;;;10.19;25.47;95231.88;4934531;28;20043;-79
2021/03/25 10:15:47;;;;;;;3.72;3.35;;;;;;;10.06;25.65;95232.03;4976288;28;20030;-80
2021/03/25 10:18:16;;;;;;;12.25;4.18;;;;;;;9.78;26.26;95229.16;4976741;28;20035;-81
2021/03/25 10:20:45;;;;;;;7.43;3.70;;;;;;;9.22;27.06;95230.09;4970261;28;20039;-80
2021/03/25 10:23:21;;;;;;;4.80;3.85;;;;;;;9.25;26.87;95230.44;4957381;28;20114;-80
2021/03/25 10:26:05;;;;;;;9.73;3.40;;;;;;;9.18;27.83;95241.91;4970075;28;20035;-81
2021/03/25 10:28:36;;;;;;;10.05;4.65;;;;;;;9.31;27.82;95236.59;4940565;28;20491;-81
2021/03/25 10:31:19;;;;;;;13.00;4.45;;;;;;;9.47;27.88;95230.88;4953975;28;20089;-80
2021/03/25 10:33:45;;;;;;;15.95;9.38;;;;;;;9.66;28.23;95230.88;4939449;28;20039;-81
2021/03/25 10:36:16;;;;;;;3.92;3.58;;;;;;;9.45;26.97;95224.31;4955160;28;20054;-81
2021/03/25 10:38:44;;;;;;;14.50;3.97;;;;;;;9.17;28.31;95238.50;4956506;28;20061;-81
2021/03/25 10:41:30;;;;;;;8.48;4.10;;;;;;;9.11;28.70;95234.19;4953367;28;20089;-81
2021/03/25 10:43:56;;;;;;;4.93;4.03;;;;;;;9.09;28.35;95236.16;4932163;28;20031;-80
2021/03/25 10:46:35;;;;;;;5.65;3.85;;;;;;;9.19;28.01;95223.53;4953112;28;20047;-81
2021/03/25 10:49:05;;;;;;;6.97;5.47;;;;;;;9.30;28.71;95216.84;4917952;28;20384;-81
2021/03/25 10:51:31;;;;;;;16.55;8.27;;;;;;;9.51;28.15;95224.22;4920524;28;20672;-80
2021/03/25 10:54:14;;;;;;;8.70;4.05;;;;;;;9.54;27.00;95223.81;4950880;28;20030;-80
2021/03/25 10:56:39;;;;;;;5.38;4.80;;;;;;;9.55;26.60;95217.59;4968549;28;20126;-81
2021/03/25 10:59:29;;;;;;;7.38;6.68;;;;;;;9.76;26.45;95223.38;4956269;28;20038;-81
2021/03/25 11:01:56;;;;;;;15.57;6.13;;;;;;;9.92;26.80;95221.03;4955714;28;20031;-79
2021/03/25 11:07:16;;;;;;;11.02;7.93;;;;;;;9.99;25.91;95214.94;5044200;23;20081;-80
2021/03/25 11:09:51;;;;;;;14.98;9.15;;;;;;;10.06;26.32;95206.03;4991584;28;20046;-79
2021/03/25 11:12:21;;;;;;;12.10;7.22;;;;;;;10.11;26.52;95206.22;4992500;28;20039;-80
2021/03/25 11:14:55;;;;;;;23.25;10.95;;;;;;;10.25;26.61;95203.44;4977410;28;20084;-79
2021/03/25 11:17:21;;;;;;;10.13;7.38;;;;;;;10.11;26.01;95214.00;4994611;28;20042;-80
2021/03/25 11:19:57;;;;;;;16.05;9.93;;;;;;;9.93;26.83;95206.22;4996044;28;20041;-83
2021/03/25 11:22:23;;;;;;;21.63;7.05;;;;;;;9.68;26.68;95208.88;4995383;28;20034;-83
2021/03/25 11:24:52;;;;;;;10.52;7.63;;;;;;;9.77;26.51;95207.59;4996480;28;20037;-82
2021/03/25 11:27:25;;;;;;;16.63;5.22;;;;;;;10.06;26.31;95206.03;4980696;28;20038;-82
2021/03/25 11:30:05;;;;;;;4.05;3.65;;;;;;;10.13;25.73;95204.19;5072716;23;20052;-82
2021/03/25 11:32:37;;;;;;;6.78;4.47;;;;;;;10.08;26.54;95195.44;4969579;28;20039;-83
2021/03/25 11:35:34;;;;;;;8.70;5.17;;;;;;;10.25;26.10;95182.66;4935199;28;20047;-82
2021/03/25 11:38:22;;;;;;;4.60;3.60;;;;;;;10.35;26.24;95185.53;4955999;28;20294;-82
2021/03/25 11:40:48;;;;;;;13.80;6.88;;;;;;;10.38;26.57;95187.69;4953378;28;20460;-82
2021/03/25 11:43:22;;;;;;;14.43;7.78;;;;;;;10.59;26.05;95195.00;4921196;28;20026;-82
2021/03/25 11:45:51;;;;;;;21.38;10.50;;;;;;;10.58;25.88;95187.44;4940026;28;20043;-82
2021/03/25 11:48:26;;;;;;;23.17;9.77;;;;;;;10.61;26.26;95185.16;4939184;28;20027;-83
2021/03/25 11:50:53;;;;;;;17.08;8.63;;;;;;;10.55;25.87;95188.63;4959142;28;20053;-83
2021/03/25 11:53:49;;;;;;;27.35;16.27;;;;;;;10.62;26.00;95189.34;4941776;28;20494;-82
2021/03/25 11:56:36;;;;;;;23.55;6.90;;;;;;;10.65;25.57;95194.09;4944214;28;20043;-81
2021/03/25 11:59:27;;;;;;;9.45;7.40;;;;;;;10.53;26.16;95188.06;4940382;28;20018;-82
2021/03/25 12:02:21;;;;;;;12.68;6.55;;;;;;;10.37;25.66;95194.69;4952403;28;20043;-83
2021/03/25 12:04:50;;;;;;;12.63;7.03;;;;;;;10.31;25.70;95187.78;4960232;28;20042;-82
2021/03/25 12:07:18;;;;;;;12.60;6.75;;;;;;;10.37;25.78;95192.09;4953703;28;20063;-82
2021/03/25 12:10:00;;;;;;;12.90;8.35;;;;;;;10.49;25.53;95184.34;4939690;28;20042;-82
2021/03/25 12:12:28;;;;;;;;;;;;;;;10.37;25.68;95191.28;4971906;28;20118;-82